sensor_id;sensor_type;location;lat;lon;timestamp;temperature;humidity
15638;DHT22;26604;53.596;10.042;2022-11-12T00:00:29;19.20;1.00
15638;DHT22;26604;53.596;10.042;2022-11-12T00:02:56;19.20;1.00
15638;DHT22;26604;53.596;10.042;2022-11-12T00:05:25;19.10;1.00
15638;DHT22;26604;53.596;10.042;2022-11-12T00:07:52;19.20;1.00
15638;DHT22;26604;53.596;10.042;2022-11-12T00:10:19;19.20;1.00
15638;DHT22;26604;53.596;10.042;2022-11-12T00:12:46;19.10;1.00
15638;DHT22;26604;53.596;10.042;2022-11-12T00:15:13;19.10;1.00
15638;DHT22;26604;53.596;10.042;2022-11-12T00:17:40;19.10;1.00
15638;DHT22;26604;53.596;10.042;2022-11-12T00:20:08;19.10;1.00
15638;DHT22;26604;53.596;10.042;2022-11-12T00:22:36;19.10;1.00
15638;DHT22;26604;53.596;10.042;2022-11-12T00:25:04;19.10;1.00
15638;DHT22;26604;53.596;10.042;2022-11-12T00:27:31;19.10;1.00
15638;DHT22;26604;53.596;10.042;2022-11-12T00:29:58;19.10;1.00
15638;DHT22;26604;53.596;10.042;2022-11-12T00:32:25;19.10;1.00
15638;DHT22;26604;53.596;10.042;2022-11-12T00:34:52;19.10;1.00
15638;DHT22;26604;53.596;10.042;2022-11-12T00:37:19;19.10;1.00
15638;DHT22;26604;53.596;10.042;2022-11-12T00:39:49;19.10;1.00
15638;DHT22;26604;53.596;10.042;2022-11-12T00:42:15;19.10;1.00
15638;DHT22;26604;53.596;10.042;2022-11-12T00:44:42;19.10;1.00
15638;DHT22;26604;53.596;10.042;2022-11-12T00:47:09;19.10;1.00
15638;DHT22;26604;53.596;10.042;2022-11-12T00:49:36;19.10;1.00
15638;DHT22;26604;53.596;10.042;2022-11-12T00:52:03;19.10;1.00
15638;DHT22;26604;53.596;10.042;2022-11-12T00:54:30;19.10;1.00
15638;DHT22;26604;53.596;10.042;2022-11-12T00:56:58;19.10;1.00
15638;DHT22;26604;53.596;10.042;2022-11-12T00:59:25;19.20;1.00
15638;DHT22;26604;53.596;10.042;2022-11-12T01:01:52;19.10;1.00
15638;DHT22;26604;53.596;10.042;2022-11-12T01:04:18;19.10;1.00
15638;DHT22;26604;53.596;10.042;2022-11-12T01:06:45;19.10;1.00
15638;DHT22;26604;53.596;10.042;2022-11-12T01:09:12;19.10;1.00
15638;DHT22;26604;53.596;10.042;2022-11-12T01:11:40;19.10;1.00
15638;DHT22;26604;53.596;10.042;2022-11-12T01:14:09;19.10;1.00
15638;DHT22;26604;53.596;10.042;2022-11-12T01:16:38;19.10;1.00
15638;DHT22;26604;53.596;10.042;2022-11-12T01:19:07;19.10;1.00
15638;DHT22;26604;53.596;10.042;2022-11-12T01:21:37;19.10;1.00
15638;DHT22;26604;53.596;10.042;2022-11-12T01:24:05;19.10;1.00
15638;DHT22;26604;53.596;10.042;2022-11-12T01:26:32;19.10;1.00
15638;DHT22;26604;53.596;10.042;2022-11-12T01:28:59;19.10;1.00
15638;DHT22;26604;53.596;10.042;2022-11-12T01:31:28;19.10;1.00
15638;DHT22;26604;53.596;10.042;2022-11-12T01:33:57;19.10;1.00
15638;DHT22;26604;53.596;10.042;2022-11-12T01:36:25;19.10;1.00
15638;DHT22;26604;53.596;10.042;2022-11-12T01:38:53;19.10;1.00
15638;DHT22;26604;53.596;10.042;2022-11-12T01:41:21;19.10;1.00
15638;DHT22;26604;53.596;10.042;2022-11-12T01:44:10;19.10;1.00
15638;DHT22;26604;53.596;10.042;2022-11-12T01:46:54;19.10;1.00
15638;DHT22;26604;53.596;10.042;2022-11-12T01:49:26;19.10;1.00
15638;DHT22;26604;53.596;10.042;2022-11-12T01:51:55;19.10;1.00
15638;DHT22;26604;53.596;10.042;2022-11-12T01:54:25;19.10;1.00
15638;DHT22;26604;53.596;10.042;2022-11-12T01:56:52;19.10;1.00
15638;DHT22;26604;53.596;10.042;2022-11-12T01:59:24;19.10;1.00
15638;DHT22;26604;53.596;10.042;2022-11-12T02:01:55;19.10;1.00
15638;DHT22;26604;53.596;10.042;2022-11-12T02:04:22;19.10;1.00
15638;DHT22;26604;53.596;10.042;2022-11-12T02:06:51;19.10;1.00
15638;DHT22;26604;53.596;10.042;2022-11-12T02:09:19;19.10;1.00
15638;DHT22;26604;53.596;10.042;2022-11-12T02:11:45;19.10;1.00
15638;DHT22;26604;53.596;10.042;2022-11-12T02:14:12;19.10;1.00
15638;DHT22;26604;53.596;10.042;2022-11-12T02:16:40;19.10;1.00
15638;DHT22;26604;53.596;10.042;2022-11-12T02:19:11;19.10;1.00
15638;DHT22;26604;53.596;10.042;2022-11-12T02:21:40;19.10;1.00
15638;DHT22;26604;53.596;10.042;2022-11-12T02:24:32;19.10;1.00
15638;DHT22;26604;53.596;10.042;2022-11-12T02:26:59;19.10;1.00
15638;DHT22;26604;53.596;10.042;2022-11-12T02:29:26;19.10;1.00
15638;DHT22;26604;53.596;10.042;2022-11-12T02:31:53;19.10;1.00
15638;DHT22;26604;53.596;10.042;2022-11-12T02:34:20;19.10;1.00
15638;DHT22;26604;53.596;10.042;2022-11-12T02:36:48;19.10;1.00
15638;DHT22;26604;53.596;10.042;2022-11-12T02:39:15;19.10;1.00
15638;DHT22;26604;53.596;10.042;2022-11-12T02:41:42;19.10;1.00
15638;DHT22;26604;53.596;10.042;2022-11-12T02:44:09;19.10;1.00
15638;DHT22;26604;53.596;10.042;2022-11-12T02:46:36;19.10;1.00
15638;DHT22;26604;53.596;10.042;2022-11-12T02:49:02;19.10;1.00
15638;DHT22;26604;53.596;10.042;2022-11-12T02:51:29;19.10;1.00
15638;DHT22;26604;53.596;10.042;2022-11-12T02:53:58;19.10;1.00
15638;DHT22;26604;53.596;10.042;2022-11-12T02:56:24;19.10;1.00
15638;DHT22;26604;53.596;10.042;2022-11-12T02:58:51;19.10;1.00
15638;DHT22;26604;53.596;10.042;2022-11-12T03:01:18;19.10;1.00
15638;DHT22;26604;53.596;10.042;2022-11-12T03:03:45;19.10;1.00
15638;DHT22;26604;53.596;10.042;2022-11-12T03:06:12;19.10;1.00
15638;DHT22;26604;53.596;10.042;2022-11-12T03:08:39;19.10;1.00
15638;DHT22;26604;53.596;10.042;2022-11-12T03:11:09;19.10;1.00
15638;DHT22;26604;53.596;10.042;2022-11-12T03:13:36;19.10;1.00
15638;DHT22;26604;53.596;10.042;2022-11-12T03:16:04;19.10;1.00
15638;DHT22;26604;53.596;10.042;2022-11-12T03:18:31;19.10;1.00
15638;DHT22;26604;53.596;10.042;2022-11-12T03:20:58;19.10;1.00
15638;DHT22;26604;53.596;10.042;2022-11-12T03:23:26;19.10;1.00
15638;DHT22;26604;53.596;10.042;2022-11-12T03:25:53;19.10;1.00
15638;DHT22;26604;53.596;10.042;2022-11-12T03:28:21;19.10;1.00
15638;DHT22;26604;53.596;10.042;2022-11-12T03:30:48;19.10;1.00
15638;DHT22;26604;53.596;10.042;2022-11-12T03:33:15;19.10;1.00
15638;DHT22;26604;53.596;10.042;2022-11-12T03:35:42;19.10;1.00
15638;DHT22;26604;53.596;10.042;2022-11-12T03:38:09;19.10;1.00
15638;DHT22;26604;53.596;10.042;2022-11-12T03:40:36;19.10;1.00
15638;DHT22;26604;53.596;10.042;2022-11-12T03:43:03;19.10;1.00
15638;DHT22;26604;53.596;10.042;2022-11-12T03:45:31;19.10;1.00
15638;DHT22;26604;53.596;10.042;2022-11-12T03:47:58;19.10;1.00
15638;DHT22;26604;53.596;10.042;2022-11-12T03:50:27;19.10;1.00
15638;DHT22;26604;53.596;10.042;2022-11-12T03:52:55;19.10;1.00
15638;DHT22;26604;53.596;10.042;2022-11-12T03:55:24;19.10;1.00
15638;DHT22;26604;53.596;10.042;2022-11-12T03:57:53;19.10;1.00
15638;DHT22;26604;53.596;10.042;2022-11-12T04:00:22;19.10;1.00
15638;DHT22;26604;53.596;10.042;2022-11-12T04:02:50;19.10;1.00
15638;DHT22;26604;53.596;10.042;2022-11-12T04:05:17;19.10;1.00
15638;DHT22;26604;53.596;10.042;2022-11-12T04:08:04;19.10;1.00
15638;DHT22;26604;53.596;10.042;2022-11-12T04:10:51;19.10;1.00
15638;DHT22;26604;53.596;10.042;2022-11-12T04:13:18;19.10;1.00
15638;DHT22;26604;53.596;10.042;2022-11-12T04:15:55;19.10;1.00
15638;DHT22;26604;53.596;10.042;2022-11-12T04:18:42;19.10;1.00
15638;DHT22;26604;53.596;10.042;2022-11-12T04:21:30;19.10;1.00
15638;DHT22;26604;53.596;10.042;2022-11-12T04:24:14;19.10;1.00
15638;DHT22;26604;53.596;10.042;2022-11-12T04:26:55;19.10;1.00
15638;DHT22;26604;53.596;10.042;2022-11-12T04:29:22;19.10;1.00
15638;DHT22;26604;53.596;10.042;2022-11-12T04:32:07;19.10;1.00
15638;DHT22;26604;53.596;10.042;2022-11-12T04:34:35;19.10;1.00
15638;DHT22;26604;53.596;10.042;2022-11-12T04:37:03;19.10;1.00
15638;DHT22;26604;53.596;10.042;2022-11-12T04:39:30;19.10;1.00
15638;DHT22;26604;53.596;10.042;2022-11-12T04:41:57;19.10;1.00
15638;DHT22;26604;53.596;10.042;2022-11-12T04:44:42;19.10;1.00
15638;DHT22;26604;53.596;10.042;2022-11-12T04:47:30;19.10;1.00
15638;DHT22;26604;53.596;10.042;2022-11-12T04:49:59;19.10;1.00
15638;DHT22;26604;53.596;10.042;2022-11-12T04:52:27;19.10;1.00
15638;DHT22;26604;53.596;10.042;2022-11-12T04:54:55;19.10;1.00
15638;DHT22;26604;53.596;10.042;2022-11-12T04:57:22;19.10;1.00
15638;DHT22;26604;53.596;10.042;2022-11-12T04:59:49;19.10;1.00
15638;DHT22;26604;53.596;10.042;2022-11-12T05:02:17;19.10;1.00
15638;DHT22;26604;53.596;10.042;2022-11-12T05:04:44;19.10;1.00
15638;DHT22;26604;53.596;10.042;2022-11-12T05:07:12;19.10;1.00
15638;DHT22;26604;53.596;10.042;2022-11-12T05:09:39;19.10;1.00
15638;DHT22;26604;53.596;10.042;2022-11-12T05:12:07;19.10;1.00
15638;DHT22;26604;53.596;10.042;2022-11-12T05:14:33;19.10;1.00
15638;DHT22;26604;53.596;10.042;2022-11-12T05:17:01;19.10;1.00
15638;DHT22;26604;53.596;10.042;2022-11-12T05:19:28;19.10;1.00
15638;DHT22;26604;53.596;10.042;2022-11-12T05:21:54;19.10;1.00
15638;DHT22;26604;53.596;10.042;2022-11-12T05:24:36;19.10;1.00
15638;DHT22;26604;53.596;10.042;2022-11-12T05:27:06;19.20;1.00
15638;DHT22;26604;53.596;10.042;2022-11-12T05:29:33;19.10;1.00
15638;DHT22;26604;53.596;10.042;2022-11-12T05:32:00;19.10;1.00
15638;DHT22;26604;53.596;10.042;2022-11-12T05:34:27;19.10;1.00
15638;DHT22;26604;53.596;10.042;2022-11-12T05:36:55;19.10;1.00
15638;DHT22;26604;53.596;10.042;2022-11-12T05:39:22;19.10;1.00
15638;DHT22;26604;53.596;10.042;2022-11-12T05:41:50;19.10;1.00
15638;DHT22;26604;53.596;10.042;2022-11-12T05:44:17;19.10;1.00
15638;DHT22;26604;53.596;10.042;2022-11-12T05:46:44;19.10;1.00
15638;DHT22;26604;53.596;10.042;2022-11-12T05:49:12;19.10;1.00
15638;DHT22;26604;53.596;10.042;2022-11-12T05:51:39;19.10;1.00
15638;DHT22;26604;53.596;10.042;2022-11-12T05:54:06;19.10;1.00
15638;DHT22;26604;53.596;10.042;2022-11-12T05:56:33;19.10;1.00
15638;DHT22;26604;53.596;10.042;2022-11-12T05:59:02;19.10;1.00
15638;DHT22;26604;53.596;10.042;2022-11-12T06:01:31;19.10;1.00
15638;DHT22;26604;53.596;10.042;2022-11-12T06:03:58;19.10;1.00
15638;DHT22;26604;53.596;10.042;2022-11-12T06:06:25;19.10;1.00
15638;DHT22;26604;53.596;10.042;2022-11-12T06:08:52;19.10;1.00
15638;DHT22;26604;53.596;10.042;2022-11-12T06:11:19;19.10;1.00
15638;DHT22;26604;53.596;10.042;2022-11-12T06:13:45;19.10;1.00
15638;DHT22;26604;53.596;10.042;2022-11-12T06:16:14;19.10;1.00
15638;DHT22;26604;53.596;10.042;2022-11-12T06:18:41;19.10;1.00
15638;DHT22;26604;53.596;10.042;2022-11-12T06:21:09;19.10;1.00
15638;DHT22;26604;53.596;10.042;2022-11-12T06:23:47;19.10;1.00
15638;DHT22;26604;53.596;10.042;2022-11-12T06:26:14;19.20;1.00
15638;DHT22;26604;53.596;10.042;2022-11-12T06:28:41;19.10;1.00
15638;DHT22;26604;53.596;10.042;2022-11-12T06:31:08;19.10;1.00
15638;DHT22;26604;53.596;10.042;2022-11-12T06:33:36;19.10;1.00
15638;DHT22;26604;53.596;10.042;2022-11-12T06:36:05;19.10;1.00
15638;DHT22;26604;53.596;10.042;2022-11-12T06:38:33;19.10;1.00
15638;DHT22;26604;53.596;10.042;2022-11-12T06:41:00;19.10;1.00
15638;DHT22;26604;53.596;10.042;2022-11-12T06:43:30;19.10;1.00
15638;DHT22;26604;53.596;10.042;2022-11-12T06:46:00;19.10;1.00
15638;DHT22;26604;53.596;10.042;2022-11-12T06:48:27;19.10;1.00
15638;DHT22;26604;53.596;10.042;2022-11-12T06:50:56;19.10;1.00
15638;DHT22;26604;53.596;10.042;2022-11-12T06:53:23;19.10;1.00
15638;DHT22;26604;53.596;10.042;2022-11-12T06:55:51;19.10;1.00
15638;DHT22;26604;53.596;10.042;2022-11-12T06:58:18;19.10;1.00
15638;DHT22;26604;53.596;10.042;2022-11-12T07:00:45;19.10;1.00
15638;DHT22;26604;53.596;10.042;2022-11-12T07:03:12;19.10;1.00
15638;DHT22;26604;53.596;10.042;2022-11-12T07:05:40;19.10;1.00
15638;DHT22;26604;53.596;10.042;2022-11-12T07:08:08;19.10;1.00
15638;DHT22;26604;53.596;10.042;2022-11-12T07:10:35;19.10;1.00
15638;DHT22;26604;53.596;10.042;2022-11-12T07:13:02;19.10;1.00
15638;DHT22;26604;53.596;10.042;2022-11-12T07:15:29;19.10;1.00
15638;DHT22;26604;53.596;10.042;2022-11-12T07:17:56;19.10;1.00
15638;DHT22;26604;53.596;10.042;2022-11-12T07:20:23;19.10;1.00
15638;DHT22;26604;53.596;10.042;2022-11-12T07:22:50;19.00;1.00
15638;DHT22;26604;53.596;10.042;2022-11-12T07:25:18;19.10;1.00
15638;DHT22;26604;53.596;10.042;2022-11-12T07:27:45;19.10;1.00
15638;DHT22;26604;53.596;10.042;2022-11-12T07:30:12;19.10;1.00
15638;DHT22;26604;53.596;10.042;2022-11-12T07:32:39;19.10;1.00
15638;DHT22;26604;53.596;10.042;2022-11-12T07:35:07;19.10;1.00
15638;DHT22;26604;53.596;10.042;2022-11-12T07:37:34;19.10;1.00
15638;DHT22;26604;53.596;10.042;2022-11-12T07:40:02;19.10;1.00
15638;DHT22;26604;53.596;10.042;2022-11-12T07:42:31;19.10;1.00
15638;DHT22;26604;53.596;10.042;2022-11-12T07:44:58;19.10;1.00
15638;DHT22;26604;53.596;10.042;2022-11-12T07:47:25;19.10;1.00
15638;DHT22;26604;53.596;10.042;2022-11-12T07:49:52;19.10;1.00
15638;DHT22;26604;53.596;10.042;2022-11-12T07:52:19;19.10;1.00
15638;DHT22;26604;53.596;10.042;2022-11-12T07:54:46;19.10;1.00
15638;DHT22;26604;53.596;10.042;2022-11-12T07:57:13;19.10;1.00
15638;DHT22;26604;53.596;10.042;2022-11-12T07:59:41;19.10;1.00
15638;DHT22;26604;53.596;10.042;2022-11-12T08:02:08;19.10;1.00
15638;DHT22;26604;53.596;10.042;2022-11-12T08:04:35;19.10;1.00
15638;DHT22;26604;53.596;10.042;2022-11-12T08:07:02;19.10;1.00
15638;DHT22;26604;53.596;10.042;2022-11-12T08:09:29;19.10;1.00
15638;DHT22;26604;53.596;10.042;2022-11-12T08:11:56;19.10;1.00
15638;DHT22;26604;53.596;10.042;2022-11-12T08:14:23;19.10;1.00
15638;DHT22;26604;53.596;10.042;2022-11-12T08:16:51;19.10;1.00
15638;DHT22;26604;53.596;10.042;2022-11-12T08:19:18;19.10;1.00
15638;DHT22;26604;53.596;10.042;2022-11-12T08:21:45;19.10;1.00
15638;DHT22;26604;53.596;10.042;2022-11-12T08:24:12;19.10;1.00
15638;DHT22;26604;53.596;10.042;2022-11-12T08:26:39;19.10;1.00
15638;DHT22;26604;53.596;10.042;2022-11-12T08:29:06;19.10;1.00
15638;DHT22;26604;53.596;10.042;2022-11-12T08:31:32;19.10;1.00
15638;DHT22;26604;53.596;10.042;2022-11-12T08:34:01;19.10;1.00
15638;DHT22;26604;53.596;10.042;2022-11-12T08:36:36;19.10;1.00
15638;DHT22;26604;53.596;10.042;2022-11-12T08:39:04;19.10;1.00
15638;DHT22;26604;53.596;10.042;2022-11-12T08:41:31;19.10;1.00
15638;DHT22;26604;53.596;10.042;2022-11-12T08:43:59;19.10;1.00
15638;DHT22;26604;53.596;10.042;2022-11-12T08:46:25;19.10;1.00
15638;DHT22;26604;53.596;10.042;2022-11-12T08:48:52;19.10;1.00
15638;DHT22;26604;53.596;10.042;2022-11-12T08:51:21;19.10;1.00
15638;DHT22;26604;53.596;10.042;2022-11-12T08:53:48;19.10;1.00
15638;DHT22;26604;53.596;10.042;2022-11-12T08:56:14;19.10;1.00
15638;DHT22;26604;53.596;10.042;2022-11-12T08:58:41;19.10;1.00
15638;DHT22;26604;53.596;10.042;2022-11-12T09:01:08;19.10;1.00
15638;DHT22;26604;53.596;10.042;2022-11-12T09:03:35;19.10;1.00
15638;DHT22;26604;53.596;10.042;2022-11-12T09:06:03;19.10;1.00
15638;DHT22;26604;53.596;10.042;2022-11-12T09:08:34;19.10;1.00
15638;DHT22;26604;53.596;10.042;2022-11-12T09:11:01;19.10;1.00
15638;DHT22;26604;53.596;10.042;2022-11-12T09:13:28;19.10;1.00
15638;DHT22;26604;53.596;10.042;2022-11-12T09:15:59;19.10;1.00
15638;DHT22;26604;53.596;10.042;2022-11-12T09:18:27;19.10;1.00
15638;DHT22;26604;53.596;10.042;2022-11-12T09:20:58;19.10;1.00
15638;DHT22;26604;53.596;10.042;2022-11-12T09:23:25;19.10;1.00
15638;DHT22;26604;53.596;10.042;2022-11-12T09:25:55;19.10;1.00
15638;DHT22;26604;53.596;10.042;2022-11-12T09:28:22;19.10;1.00
15638;DHT22;26604;53.596;10.042;2022-11-12T09:30:51;19.10;1.00
15638;DHT22;26604;53.596;10.042;2022-11-12T09:33:20;19.10;1.00
15638;DHT22;26604;53.596;10.042;2022-11-12T09:35:47;19.10;1.00
15638;DHT22;26604;53.596;10.042;2022-11-12T09:38:15;19.10;1.00
15638;DHT22;26604;53.596;10.042;2022-11-12T09:41:02;19.10;1.00
15638;DHT22;26604;53.596;10.042;2022-11-12T09:43:33;19.10;1.00
15638;DHT22;26604;53.596;10.042;2022-11-12T09:46:08;19.10;1.00
15638;DHT22;26604;53.596;10.042;2022-11-12T09:48:41;19.20;1.00
15638;DHT22;26604;53.596;10.042;2022-11-12T09:51:12;19.10;1.00
15638;DHT22;26604;53.596;10.042;2022-11-12T09:53:46;19.10;1.00
15638;DHT22;26604;53.596;10.042;2022-11-12T09:56:17;19.10;1.00
15638;DHT22;26604;53.596;10.042;2022-11-12T09:58:45;19.10;1.00
15638;DHT22;26604;53.596;10.042;2022-11-12T10:01:14;19.10;1.00
15638;DHT22;26604;53.596;10.042;2022-11-12T10:03:48;19.10;1.00
15638;DHT22;26604;53.596;10.042;2022-11-12T10:06:21;19.10;1.00
15638;DHT22;26604;53.596;10.042;2022-11-12T10:08:52;19.10;1.00
15638;DHT22;26604;53.596;10.042;2022-11-12T10:11:41;19.10;1.00
15638;DHT22;26604;53.596;10.042;2022-11-12T10:14:42;19.10;1.00
15638;DHT22;26604;53.596;10.042;2022-11-12T10:17:17;19.10;1.00
15638;DHT22;26604;53.596;10.042;2022-11-12T10:19:56;19.10;1.00
15638;DHT22;26604;53.596;10.042;2022-11-12T10:22:32;19.10;1.00
15638;DHT22;26604;53.596;10.042;2022-11-12T10:25:12;19.20;1.00
15638;DHT22;26604;53.596;10.042;2022-11-12T10:27:41;19.20;1.00
15638;DHT22;26604;53.596;10.042;2022-11-12T10:30:14;19.20;1.00
15638;DHT22;26604;53.596;10.042;2022-11-12T10:32:42;19.20;1.00
15638;DHT22;26604;53.596;10.042;2022-11-12T10:35:11;19.20;1.00
15638;DHT22;26604;53.596;10.042;2022-11-12T10:37:44;19.20;1.00
15638;DHT22;26604;53.596;10.042;2022-11-12T10:40:29;19.20;1.00
15638;DHT22;26604;53.596;10.042;2022-11-12T10:43:00;19.20;1.00
15638;DHT22;26604;53.596;10.042;2022-11-12T10:45:27;19.20;1.00
15638;DHT22;26604;53.596;10.042;2022-11-12T10:47:55;19.20;1.00
15638;DHT22;26604;53.596;10.042;2022-11-12T10:50:24;19.20;1.00
15638;DHT22;26604;53.596;10.042;2022-11-12T10:52:59;19.20;1.00
15638;DHT22;26604;53.596;10.042;2022-11-12T10:55:27;19.20;1.00
15638;DHT22;26604;53.596;10.042;2022-11-12T10:58:05;19.20;1.00
15638;DHT22;26604;53.596;10.042;2022-11-12T11:00:32;19.20;1.00
15638;DHT22;26604;53.596;10.042;2022-11-12T11:03:01;19.20;1.00
15638;DHT22;26604;53.596;10.042;2022-11-12T11:05:32;19.30;1.00
15638;DHT22;26604;53.596;10.042;2022-11-12T11:07:59;19.50;1.00
15638;DHT22;26604;53.596;10.042;2022-11-12T11:10:29;19.60;1.00
15638;DHT22;26604;53.596;10.042;2022-11-12T11:13:19;19.70;1.00
15638;DHT22;26604;53.596;10.042;2022-11-12T11:16:02;19.80;1.00
15638;DHT22;26604;53.596;10.042;2022-11-12T11:18:32;19.90;1.00
15638;DHT22;26604;53.596;10.042;2022-11-12T11:21:10;19.90;1.00
15638;DHT22;26604;53.596;10.042;2022-11-12T11:23:47;20.00;1.00
15638;DHT22;26604;53.596;10.042;2022-11-12T11:26:26;20.00;1.00
15638;DHT22;26604;53.596;10.042;2022-11-12T11:29:03;20.00;1.00
15638;DHT22;26604;53.596;10.042;2022-11-12T11:31:41;20.00;1.00
15638;DHT22;26604;53.596;10.042;2022-11-12T11:34:17;20.00;1.00
15638;DHT22;26604;53.596;10.042;2022-11-12T11:36:52;19.90;1.00
15638;DHT22;26604;53.596;10.042;2022-11-12T11:39:26;19.90;1.00
15638;DHT22;26604;53.596;10.042;2022-11-12T11:42:06;19.90;1.00
15638;DHT22;26604;53.596;10.042;2022-11-12T11:44:46;19.90;1.00
15638;DHT22;26604;53.596;10.042;2022-11-12T11:47:25;19.80;1.00
15638;DHT22;26604;53.596;10.042;2022-11-12T11:50:04;19.80;1.00
15638;DHT22;26604;53.596;10.042;2022-11-12T11:52:43;19.70;1.00
15638;DHT22;26604;53.596;10.042;2022-11-12T11:55:24;19.70;1.00
15638;DHT22;26604;53.596;10.042;2022-11-12T11:58:01;19.70;1.00
15638;DHT22;26604;53.596;10.042;2022-11-12T12:00:38;19.60;1.00
15638;DHT22;26604;53.596;10.042;2022-11-12T12:03:16;19.60;1.00
15638;DHT22;26604;53.596;10.042;2022-11-12T12:05:52;19.40;1.00
15638;DHT22;26604;53.596;10.042;2022-11-12T12:08:29;19.60;1.00
15638;DHT22;26604;53.596;10.042;2022-11-12T12:11:03;19.60;1.00
15638;DHT22;26604;53.596;10.042;2022-11-12T12:13:42;19.60;1.00
15638;DHT22;26604;53.596;10.042;2022-11-12T12:16:31;19.50;1.00
15638;DHT22;26604;53.596;10.042;2022-11-12T12:19:09;17.40;1.00
15638;DHT22;26604;53.596;10.042;2022-11-12T12:21:42;19.50;1.00
15638;DHT22;26604;53.596;10.042;2022-11-12T12:24:15;19.40;1.00
15638;DHT22;26604;53.596;10.042;2022-11-12T12:26:45;19.40;1.00
15638;DHT22;26604;53.596;10.042;2022-11-12T12:29:17;19.40;1.00
15638;DHT22;26604;53.596;10.042;2022-11-12T12:31:54;19.40;1.00
15638;DHT22;26604;53.596;10.042;2022-11-12T12:34:28;19.40;1.00
15638;DHT22;26604;53.596;10.042;2022-11-12T12:37:04;19.40;1.00
15638;DHT22;26604;53.596;10.042;2022-11-12T12:39:39;19.40;1.00
15638;DHT22;26604;53.596;10.042;2022-11-12T12:42:12;19.40;1.00
15638;DHT22;26604;53.596;10.042;2022-11-12T12:44:45;19.30;1.00
15638;DHT22;26604;53.596;10.042;2022-11-12T12:47:35;19.30;1.00
15638;DHT22;26604;53.596;10.042;2022-11-12T12:50:06;19.30;1.00
15638;DHT22;26604;53.596;10.042;2022-11-12T12:52:58;19.30;1.00
15638;DHT22;26604;53.596;10.042;2022-11-12T12:55:38;19.30;1.00
15638;DHT22;26604;53.596;10.042;2022-11-12T12:58:16;19.30;1.00
15638;DHT22;26604;53.596;10.042;2022-11-12T13:00:47;19.30;1.00
15638;DHT22;26604;53.596;10.042;2022-11-12T13:03:45;19.30;1.00
15638;DHT22;26604;53.596;10.042;2022-11-12T13:06:15;19.30;1.00
15638;DHT22;26604;53.596;10.042;2022-11-12T13:08:47;19.30;1.00
15638;DHT22;26604;53.596;10.042;2022-11-12T13:11:45;19.30;1.00
15638;DHT22;26604;53.596;10.042;2022-11-12T13:17:49;19.30;1.00
15638;DHT22;26604;53.596;10.042;2022-11-12T13:20:40;19.30;1.00
15638;DHT22;26604;53.596;10.042;2022-11-12T13:32:31;19.30;1.00
15638;DHT22;26604;53.596;10.042;2022-11-12T13:35:20;19.30;1.00
15638;DHT22;26604;53.596;10.042;2022-11-12T13:37:53;19.30;1.00
15638;DHT22;26604;53.596;10.042;2022-11-12T13:40:32;19.30;1.00
15638;DHT22;26604;53.596;10.042;2022-11-12T13:43:05;19.20;1.00
15638;DHT22;26604;53.596;10.042;2022-11-12T13:45:39;19.20;1.00
15638;DHT22;26604;53.596;10.042;2022-11-12T13:48:08;19.20;1.00
15638;DHT22;26604;53.596;10.042;2022-11-12T13:50:38;19.20;1.00
15638;DHT22;26604;53.596;10.042;2022-11-12T13:53:09;19.20;1.00
15638;DHT22;26604;53.596;10.042;2022-11-12T13:55:47;19.20;1.00
15638;DHT22;26604;53.596;10.042;2022-11-12T13:58:19;19.20;1.00
15638;DHT22;26604;53.596;10.042;2022-11-12T14:00:54;19.20;1.00
15638;DHT22;26604;53.596;10.042;2022-11-12T14:03:22;19.20;1.00
15638;DHT22;26604;53.596;10.042;2022-11-12T14:05:50;19.20;1.00
15638;DHT22;26604;53.596;10.042;2022-11-12T14:08:48;19.20;1.00
15638;DHT22;26604;53.596;10.042;2022-11-12T14:11:43;19.20;1.00
15638;DHT22;26604;53.596;10.042;2022-11-12T14:14:21;19.20;1.00
15638;DHT22;26604;53.596;10.042;2022-11-12T14:17:01;19.20;1.00
15638;DHT22;26604;53.596;10.042;2022-11-12T14:19:54;19.20;1.00
15638;DHT22;26604;53.596;10.042;2022-11-12T14:22:27;19.20;1.00
15638;DHT22;26604;53.596;10.042;2022-11-12T14:25:02;19.20;1.00
15638;DHT22;26604;53.596;10.042;2022-11-12T14:27:34;19.20;1.00
15638;DHT22;26604;53.596;10.042;2022-11-12T14:30:14;19.20;1.00
15638;DHT22;26604;53.596;10.042;2022-11-12T14:32:43;19.20;1.00
15638;DHT22;26604;53.596;10.042;2022-11-12T14:35:28;19.20;1.00
15638;DHT22;26604;53.596;10.042;2022-11-12T14:37:59;19.20;1.00
15638;DHT22;26604;53.596;10.042;2022-11-12T14:40:31;19.20;1.00
15638;DHT22;26604;53.596;10.042;2022-11-12T14:42:59;19.20;1.00
15638;DHT22;26604;53.596;10.042;2022-11-12T14:45:26;19.20;1.00
15638;DHT22;26604;53.596;10.042;2022-11-12T14:47:53;19.20;1.00
15638;DHT22;26604;53.596;10.042;2022-11-12T14:50:25;19.20;1.00
15638;DHT22;26604;53.596;10.042;2022-11-12T14:52:56;19.20;1.00
15638;DHT22;26604;53.596;10.042;2022-11-12T14:55:25;19.20;1.00
15638;DHT22;26604;53.596;10.042;2022-11-12T14:57:55;19.20;1.00
15638;DHT22;26604;53.596;10.042;2022-11-12T15:00:37;19.20;1.00
15638;DHT22;26604;53.596;10.042;2022-11-12T15:03:06;19.20;1.00
15638;DHT22;26604;53.596;10.042;2022-11-12T15:05:33;19.20;1.00
15638;DHT22;26604;53.596;10.042;2022-11-12T15:08:03;19.20;1.00
15638;DHT22;26604;53.596;10.042;2022-11-12T15:10:33;19.20;1.00
15638;DHT22;26604;53.596;10.042;2022-11-12T15:13:07;19.20;1.00
15638;DHT22;26604;53.596;10.042;2022-11-12T15:15:37;19.20;1.00
15638;DHT22;26604;53.596;10.042;2022-11-12T15:18:06;19.20;1.00
15638;DHT22;26604;53.596;10.042;2022-11-12T15:20:39;19.10;1.00
15638;DHT22;26604;53.596;10.042;2022-11-12T15:23:15;19.10;1.00
15638;DHT22;26604;53.596;10.042;2022-11-12T15:25:43;19.10;1.00
15638;DHT22;26604;53.596;10.042;2022-11-12T15:28:20;19.10;1.00
15638;DHT22;26604;53.596;10.042;2022-11-12T15:30:59;19.10;1.00
15638;DHT22;26604;53.596;10.042;2022-11-12T15:33:27;19.10;1.00
15638;DHT22;26604;53.596;10.042;2022-11-12T15:35:57;19.10;1.00
15638;DHT22;26604;53.596;10.042;2022-11-12T15:38:27;19.10;1.00
15638;DHT22;26604;53.596;10.042;2022-11-12T15:40:57;19.10;1.00
15638;DHT22;26604;53.596;10.042;2022-11-12T15:43:28;19.10;1.00
15638;DHT22;26604;53.596;10.042;2022-11-12T15:45:55;19.10;1.00
15638;DHT22;26604;53.596;10.042;2022-11-12T15:48:23;19.10;1.00
15638;DHT22;26604;53.596;10.042;2022-11-12T15:50:49;19.10;1.00
15638;DHT22;26604;53.596;10.042;2022-11-12T15:53:17;19.10;1.00
15638;DHT22;26604;53.596;10.042;2022-11-12T15:55:44;19.10;1.00
15638;DHT22;26604;53.596;10.042;2022-11-12T15:58:16;19.10;1.00
15638;DHT22;26604;53.596;10.042;2022-11-12T16:00:45;19.10;1.00
15638;DHT22;26604;53.596;10.042;2022-11-12T16:03:13;19.10;1.00
15638;DHT22;26604;53.596;10.042;2022-11-12T16:05:40;19.10;1.00